sensor_id;sensor_type;location;lat;lon;timestamp;pressure;altitude;pressure_sealevel;temperature
14666;BMP280;7420;53.574;10.040;2023-02-01T00:00:14;100833.56;;;5.25
14666;BMP280;7420;53.574;10.040;2023-02-01T00:02:40;100841.16;;;5.20
14666;BMP280;7420;53.574;10.040;2023-02-01T00:05:09;100850.06;;;5.19
14666;BMP280;7420;53.574;10.040;2023-02-01T00:07:36;100879.56;;;5.22
14666;BMP280;7420;53.574;10.040;2023-02-01T00:10:02;100855.34;;;5.19
14666;BMP280;7420;53.574;10.040;2023-02-01T00:12:29;100832.94;;;5.15
14666;BMP280;7420;53.574;10.040;2023-02-01T00:14:54;100836.09;;;5.10
14666;BMP280;7420;53.574;10.040;2023-02-01T00:17:19;100833.78;;;5.15
14666;BMP280;7420;53.574;10.040;2023-02-01T00:19:45;100839.53;;;5.19
14666;BMP280;7420;53.574;10.040;2023-02-01T00:22:11;100853.88;;;5.16
14666;BMP280;7420;53.574;10.040;2023-02-01T00:24:36;100807.75;;;5.20
14666;BMP280;7420;53.574;10.040;2023-02-01T00:27:01;100825.69;;;5.17
14666;BMP280;7420;53.574;10.040;2023-02-01T00:29:27;100838.38;;;5.21
14666;BMP280;7420;53.574;10.040;2023-02-01T00:31:52;100855.19;;;5.20
14666;BMP280;7420;53.574;10.040;2023-02-01T00:34:18;100835.41;;;5.24
14666;BMP280;7420;53.574;10.040;2023-02-01T00:36:45;100845.06;;;5.32
14666;BMP280;7420;53.574;10.040;2023-02-01T00:39:11;100843.78;;;5.28
14666;BMP280;7420;53.574;10.040;2023-02-01T00:41:36;100842.59;;;5.30
14666;BMP280;7420;53.574;10.040;2023-02-01T00:44:02;100815.25;;;5.31
14666;BMP280;7420;53.574;10.040;2023-02-01T00:46:28;100819.84;;;5.37
14666;BMP280;7420;53.574;10.040;2023-02-01T00:48:54;100842.91;;;5.35
14666;BMP280;7420;53.574;10.040;2023-02-01T00:51:23;100830.38;;;5.37
14666;BMP280;7420;53.574;10.040;2023-02-01T00:53:49;100821.66;;;5.37
14666;BMP280;7420;53.574;10.040;2023-02-01T00:56:15;100823.47;;;5.36
14666;BMP280;7420;53.574;10.040;2023-02-01T00:58:40;100817.53;;;5.34
14666;BMP280;7420;53.574;10.040;2023-02-01T01:01:12;100804.53;;;5.33
14666;BMP280;7420;53.574;10.040;2023-02-01T01:03:43;100817.53;;;5.34
14666;BMP280;7420;53.574;10.040;2023-02-01T01:06:13;100820.03;;;5.36
14666;BMP280;7420;53.574;10.040;2023-02-01T01:08:39;100805.66;;;5.38
14666;BMP280;7420;53.574;10.040;2023-02-01T01:11:17;100812.13;;;5.36
14666;BMP280;7420;53.574;10.040;2023-02-01T01:13:45;100816.03;;;5.40
14666;BMP280;7420;53.574;10.040;2023-02-01T01:16:11;100818.50;;;5.41
14666;BMP280;7420;53.574;10.040;2023-02-01T01:18:37;100799.88;;;5.43
14666;BMP280;7420;53.574;10.040;2023-02-01T01:21:05;100820.44;;;5.47
14666;BMP280;7420;53.574;10.040;2023-02-01T01:23:31;100796.72;;;5.47
14666;BMP280;7420;53.574;10.040;2023-02-01T01:25:56;100803.97;;;5.45
14666;BMP280;7420;53.574;10.040;2023-02-01T01:28:22;100803.81;;;5.47
14666;BMP280;7420;53.574;10.040;2023-02-01T01:30:47;100787.63;;;5.50
14666;BMP280;7420;53.574;10.040;2023-02-01T01:33:13;100799.66;;;5.52
14666;BMP280;7420;53.574;10.040;2023-02-01T01:35:38;100755.84;;;5.51
14666;BMP280;7420;53.574;10.040;2023-02-01T01:38:04;100774.81;;;5.47
14666;BMP280;7420;53.574;10.040;2023-02-01T01:40:30;100780.22;;;5.53
14666;BMP280;7420;53.574;10.040;2023-02-01T01:42:56;100778.56;;;5.52
14666;BMP280;7420;53.574;10.040;2023-02-01T01:45:31;100772.84;;;5.49
14666;BMP280;7420;53.574;10.040;2023-02-01T01:48:25;100773.00;;;5.47
14666;BMP280;7420;53.574;10.040;2023-02-01T01:50:53;100763.28;;;5.48
14666;BMP280;7420;53.574;10.040;2023-02-01T01:53:25;100765.09;;;5.47
14666;BMP280;7420;53.574;10.040;2023-02-01T01:55:53;100754.19;;;5.50
14666;BMP280;7420;53.574;10.040;2023-02-01T01:58:23;100755.47;;;5.54
14666;BMP280;7420;53.574;10.040;2023-02-01T02:00:50;100773.94;;;5.54
14666;BMP280;7420;53.574;10.040;2023-02-01T02:03:35;100775.59;;;5.55
14666;BMP280;7420;53.574;10.040;2023-02-01T02:06:04;100744.28;;;5.52
14666;BMP280;7420;53.574;10.040;2023-02-01T02:08:33;100741.53;;;5.46
14666;BMP280;7420;53.574;10.040;2023-02-01T02:10:58;100738.38;;;5.50
14666;BMP280;7420;53.574;10.040;2023-02-01T02:13:36;100723.56;;;5.49
14666;BMP280;7420;53.574;10.040;2023-02-01T02:19:03;100741.00;;;5.50
14666;BMP280;7420;53.574;10.040;2023-02-01T02:36:39;100717.22;;;5.36
14666;BMP280;7420;53.574;10.040;2023-02-01T02:39:21;100704.72;;;5.30
14666;BMP280;7420;53.574;10.040;2023-02-01T02:44:48;100699.00;;;5.26
14666;BMP280;7420;53.574;10.040;2023-02-01T02:47:44;100699.66;;;5.28
14666;BMP280;7420;53.574;10.040;2023-02-01T02:53:23;100685.81;;;5.26
14666;BMP280;7420;53.574;10.040;2023-02-01T02:56:11;100688.16;;;5.21
14666;BMP280;7420;53.574;10.040;2023-02-01T02:58:57;100677.63;;;5.21
14666;BMP280;7420;53.574;10.040;2023-02-01T03:01:42;100677.31;;;5.16
14666;BMP280;7420;53.574;10.040;2023-02-01T03:04:26;100670.13;;;5.10
14666;BMP280;7420;53.574;10.040;2023-02-01T03:06:52;100660.69;;;5.16
14666;BMP280;7420;53.574;10.040;2023-02-01T03:09:23;100665.84;;;5.09
14666;BMP280;7420;53.574;10.040;2023-02-01T03:11:58;100676.25;;;5.03
14666;BMP280;7420;53.574;10.040;2023-02-01T03:14:47;100659.81;;;5.01
14666;BMP280;7420;53.574;10.040;2023-02-01T03:17:19;100646.28;;;5.04
14666;BMP280;7420;53.574;10.040;2023-02-01T03:19:48;100647.78;;;4.98
14666;BMP280;7420;53.574;10.040;2023-02-01T03:22:24;100639.25;;;4.96
14666;BMP280;7420;53.574;10.040;2023-02-01T03:24:57;100643.28;;;4.84
14666;BMP280;7420;53.574;10.040;2023-02-01T03:27:28;100633.22;;;4.88
14666;BMP280;7420;53.574;10.040;2023-02-01T03:30:13;100640.75;;;4.91
14666;BMP280;7420;53.574;10.040;2023-02-01T03:32:44;100643.09;;;4.86
14666;BMP280;7420;53.574;10.040;2023-02-01T03:35:33;100682.44;;;4.87
14666;BMP280;7420;53.574;10.040;2023-02-01T03:38:16;100635.06;;;4.79
14666;BMP280;7420;53.574;10.040;2023-02-01T03:40:48;100639.69;;;4.77
14666;BMP280;7420;53.574;10.040;2023-02-01T03:43:17;100646.75;;;4.77
14666;BMP280;7420;53.574;10.040;2023-02-01T03:45:47;100649.56;;;4.75
14666;BMP280;7420;53.574;10.040;2023-02-01T03:48:16;100635.75;;;4.73
14666;BMP280;7420;53.574;10.040;2023-02-01T03:50:49;100645.34;;;4.66
14666;BMP280;7420;53.574;10.040;2023-02-01T03:53:20;100627.25;;;4.63
14666;BMP280;7420;53.574;10.040;2023-02-01T03:55:46;100631.91;;;4.53
14666;BMP280;7420;53.574;10.040;2023-02-01T03:58:16;100616.09;;;4.53
14666;BMP280;7420;53.574;10.040;2023-02-01T04:00:54;100617.59;;;4.56
14666;BMP280;7420;53.574;10.040;2023-02-01T04:03:20;100612.97;;;4.58
14666;BMP280;7420;53.574;10.040;2023-02-01T04:05:50;100608.94;;;4.48
14666;BMP280;7420;53.574;10.040;2023-02-01T04:08:15;100611.56;;;4.48
14666;BMP280;7420;53.574;10.040;2023-02-01T04:10:41;100609.56;;;4.50
14666;BMP280;7420;53.574;10.040;2023-02-01T04:13:06;100596.69;;;4.54
14666;BMP280;7420;53.574;10.040;2023-02-01T04:15:32;100586.03;;;4.48
14666;BMP280;7420;53.574;10.040;2023-02-01T04:17:59;100599.66;;;4.51
14666;BMP280;7420;53.574;10.040;2023-02-01T04:20:25;100584.59;;;4.46
14666;BMP280;7420;53.574;10.040;2023-02-01T04:22:50;100595.56;;;4.49
14666;BMP280;7420;53.574;10.040;2023-02-01T04:25:16;100567.94;;;4.53
14666;BMP280;7420;53.574;10.040;2023-02-01T04:27:44;100572.53;;;4.51
14666;BMP280;7420;53.574;10.040;2023-02-01T04:30:11;100566.81;;;4.48
14666;BMP280;7420;53.574;10.040;2023-02-01T04:32:37;100573.84;;;4.55
14666;BMP280;7420;53.574;10.040;2023-02-01T04:35:03;100564.44;;;4.52
14666;BMP280;7420;53.574;10.040;2023-02-01T04:37:28;100562.06;;;4.43
14666;BMP280;7420;53.574;10.040;2023-02-01T04:39:54;100570.91;;;4.50
14666;BMP280;7420;53.574;10.040;2023-02-01T04:42:20;100584.06;;;4.50
14666;BMP280;7420;53.574;10.040;2023-02-01T04:44:45;100557.28;;;4.47
14666;BMP280;7420;53.574;10.040;2023-02-01T04:47:11;100571.09;;;4.49
14666;BMP280;7420;53.574;10.040;2023-02-01T04:49:36;100564.19;;;4.48
14666;BMP280;7420;53.574;10.040;2023-02-01T04:52:02;100562.88;;;4.44
14666;BMP280;7420;53.574;10.040;2023-02-01T04:54:27;100564.03;;;4.41
14666;BMP280;7420;53.574;10.040;2023-02-01T04:56:53;100573.09;;;4.39
14666;BMP280;7420;53.574;10.040;2023-02-01T04:59:18;100569.63;;;4.38
14666;BMP280;7420;53.574;10.040;2023-02-01T05:01:44;100560.28;;;4.36
14666;BMP280;7420;53.574;10.040;2023-02-01T05:04:09;100552.78;;;4.25
14666;BMP280;7420;53.574;10.040;2023-02-01T05:06:35;100563.28;;;4.25
14666;BMP280;7420;53.574;10.040;2023-02-01T05:09:00;100578.78;;;4.20
14666;BMP280;7420;53.574;10.040;2023-02-01T05:11:25;100604.94;;;4.13
14666;BMP280;7420;53.574;10.040;2023-02-01T05:14:10;100591.38;;;3.94
14666;BMP280;7420;53.574;10.040;2023-02-01T05:16:35;100613.91;;;3.88
14666;BMP280;7420;53.574;10.040;2023-02-01T05:19:01;100591.78;;;3.51
14666;BMP280;7420;53.574;10.040;2023-02-01T05:21:26;100592.13;;;3.40
14666;BMP280;7420;53.574;10.040;2023-02-01T05:23:52;100569.78;;;3.36
14666;BMP280;7420;53.574;10.040;2023-02-01T05:26:48;100603.13;;;3.28
14666;BMP280;7420;53.574;10.040;2023-02-01T05:29:14;100575.41;;;3.17
14666;BMP280;7420;53.574;10.040;2023-02-01T05:31:40;100560.44;;;3.18
14666;BMP280;7420;53.574;10.040;2023-02-01T05:34:06;100546.81;;;3.06
14666;BMP280;7420;53.574;10.040;2023-02-01T05:36:32;100531.72;;;3.00
14666;BMP280;7420;53.574;10.040;2023-02-01T05:38:57;100550.09;;;3.08
14666;BMP280;7420;53.574;10.040;2023-02-01T05:41:23;100571.44;;;3.13
14666;BMP280;7420;53.574;10.040;2023-02-01T05:43:49;100579.31;;;3.05
14666;BMP280;7420;53.574;10.040;2023-02-01T05:46:14;100576.03;;;2.95
14666;BMP280;7420;53.574;10.040;2023-02-01T05:48:40;100584.25;;;2.92
14666;BMP280;7420;53.574;10.040;2023-02-01T05:51:06;100579.66;;;3.02
14666;BMP280;7420;53.574;10.040;2023-02-01T05:53:31;100579.63;;;2.94
14666;BMP280;7420;53.574;10.040;2023-02-01T05:55:57;100568.31;;;2.94
14666;BMP280;7420;53.574;10.040;2023-02-01T05:58:22;100598.69;;;2.88
14666;BMP280;7420;53.574;10.040;2023-02-01T06:00:48;100568.16;;;2.87
14666;BMP280;7420;53.574;10.040;2023-02-01T06:03:13;100576.38;;;2.84
14666;BMP280;7420;53.574;10.040;2023-02-01T06:05:39;100595.06;;;2.81
14666;BMP280;7420;53.574;10.040;2023-02-01T06:08:04;100572.25;;;2.74
14666;BMP280;7420;53.574;10.040;2023-02-01T06:10:30;100567.50;;;2.77
14666;BMP280;7420;53.574;10.040;2023-02-01T06:12:55;100565.69;;;2.78
14666;BMP280;7420;53.574;10.040;2023-02-01T06:15:21;100552.41;;;2.79
14666;BMP280;7420;53.574;10.040;2023-02-01T06:17:49;100548.13;;;2.78
14666;BMP280;7420;53.574;10.040;2023-02-01T06:20:15;100555.50;;;2.83
14666;BMP280;7420;53.574;10.040;2023-02-01T06:22:41;100552.91;;;2.91
14666;BMP280;7420;53.574;10.040;2023-02-01T06:25:08;100552.56;;;2.94
14666;BMP280;7420;53.574;10.040;2023-02-01T06:27:34;100572.94;;;3.00
14666;BMP280;7420;53.574;10.040;2023-02-01T06:30:01;100557.19;;;3.00
14666;BMP280;7420;53.574;10.040;2023-02-01T06:32:26;100558.66;;;3.10
14666;BMP280;7420;53.574;10.040;2023-02-01T06:34:52;100554.03;;;3.04
14666;BMP280;7420;53.574;10.040;2023-02-01T06:37:18;100547.81;;;3.13
14666;BMP280;7420;53.574;10.040;2023-02-01T06:39:44;100545.19;;;3.21
14666;BMP280;7420;53.574;10.040;2023-02-01T06:42:09;100550.59;;;3.28
14666;BMP280;7420;53.574;10.040;2023-02-01T06:44:35;100558.47;;;3.28
14666;BMP280;7420;53.574;10.040;2023-02-01T06:47:00;100551.56;;;3.35
14666;BMP280;7420;53.574;10.040;2023-02-01T06:49:26;100555.84;;;3.36
14666;BMP280;7420;53.574;10.040;2023-02-01T06:51:51;100555.50;;;3.38
14666;BMP280;7420;53.574;10.040;2023-02-01T06:54:16;100545.47;;;3.42
14666;BMP280;7420;53.574;10.040;2023-02-01T06:56:42;100546.47;;;3.41
14666;BMP280;7420;53.574;10.040;2023-02-01T06:59:07;100550.56;;;3.51
14666;BMP280;7420;53.574;10.040;2023-02-01T07:01:33;100559.25;;;3.60
14666;BMP280;7420;53.574;10.040;2023-02-01T07:03:59;100543.16;;;3.63
14666;BMP280;7420;53.574;10.040;2023-02-01T07:06:25;100582.25;;;3.66
14666;BMP280;7420;53.574;10.040;2023-02-01T07:08:50;100558.28;;;3.61
14666;BMP280;7420;53.574;10.040;2023-02-01T07:11:17;100549.88;;;3.65
14666;BMP280;7420;53.574;10.040;2023-02-01T07:13:43;100556.75;;;3.66
14666;BMP280;7420;53.574;10.040;2023-02-01T07:16:12;100559.25;;;3.60
14666;BMP280;7420;53.574;10.040;2023-02-01T07:18:37;100568.44;;;3.64
14666;BMP280;7420;53.574;10.040;2023-02-01T07:21:03;100576.66;;;3.69
14666;BMP280;7420;53.574;10.040;2023-02-01T07:23:28;100566.75;;;3.79
14666;BMP280;7420;53.574;10.040;2023-02-01T07:25:55;100562.66;;;3.84
14666;BMP280;7420;53.574;10.040;2023-02-01T07:28:22;100546.13;;;3.98
14666;BMP280;7420;53.574;10.040;2023-02-01T07:30:48;100547.59;;;4.09
14666;BMP280;7420;53.574;10.040;2023-02-01T07:33:25;100548.38;;;4.17
14666;BMP280;7420;53.574;10.040;2023-02-01T07:35:51;100564.63;;;4.21
14666;BMP280;7420;53.574;10.040;2023-02-01T07:38:17;100543.28;;;4.16
14666;BMP280;7420;53.574;10.040;2023-02-01T07:40:43;100547.78;;;3.99
14666;BMP280;7420;53.574;10.040;2023-02-01T07:43:09;100558.03;;;3.86
14666;BMP280;7420;53.574;10.040;2023-02-01T07:45:35;100551.06;;;4.01
14666;BMP280;7420;53.574;10.040;2023-02-01T07:48:01;100561.59;;;4.01
14666;BMP280;7420;53.574;10.040;2023-02-01T07:50:27;100549.59;;;4.07
14666;BMP280;7420;53.574;10.040;2023-02-01T07:52:52;100571.56;;;4.14
14666;BMP280;7420;53.574;10.040;2023-02-01T07:55:19;100563.97;;;4.19
14666;BMP280;7420;53.574;10.040;2023-02-01T07:57:45;100562.16;;;4.27
14666;BMP280;7420;53.574;10.040;2023-02-01T08:00:10;100571.94;;;4.41
14666;BMP280;7420;53.574;10.040;2023-02-01T08:02:57;100580.91;;;4.54
14666;BMP280;7420;53.574;10.040;2023-02-01T08:05:23;100561.44;;;4.63
14666;BMP280;7420;53.574;10.040;2023-02-01T08:07:49;100585.63;;;4.67
14666;BMP280;7420;53.574;10.040;2023-02-01T08:10:15;100571.63;;;4.66
14666;BMP280;7420;53.574;10.040;2023-02-01T08:12:41;100579.81;;;4.71
14666;BMP280;7420;53.574;10.040;2023-02-01T08:15:06;100577.19;;;4.71
14666;BMP280;7420;53.574;10.040;2023-02-01T08:17:32;100579.63;;;4.73
14666;BMP280;7420;53.574;10.040;2023-02-01T08:19:58;100583.41;;;4.78
14666;BMP280;7420;53.574;10.040;2023-02-01T08:22:23;100586.34;;;4.83
14666;BMP280;7420;53.574;10.040;2023-02-01T08:24:49;100592.00;;;4.95
14666;BMP280;7420;53.574;10.040;2023-02-01T08:27:15;100627.34;;;5.00
14666;BMP280;7420;53.574;10.040;2023-02-01T08:29:40;100605.25;;;5.09
14666;BMP280;7420;53.574;10.040;2023-02-01T08:32:06;100606.34;;;5.15
14666;BMP280;7420;53.574;10.040;2023-02-01T08:34:32;100615.47;;;5.27
14666;BMP280;7420;53.574;10.040;2023-02-01T08:36:57;100620.06;;;5.33
14666;BMP280;7420;53.574;10.040;2023-02-01T08:39:24;100606.78;;;5.26
14666;BMP280;7420;53.574;10.040;2023-02-01T08:41:49;100652.13;;;5.14
14666;BMP280;7420;53.574;10.040;2023-02-01T08:44:35;100612.94;;;5.11
14666;BMP280;7420;53.574;10.040;2023-02-01T08:47:01;100591.41;;;5.07
14666;BMP280;7420;53.574;10.040;2023-02-01T08:49:26;100612.34;;;5.09
14666;BMP280;7420;53.574;10.040;2023-02-01T08:51:51;100606.06;;;5.10
14666;BMP280;7420;53.574;10.040;2023-02-01T08:54:17;100591.13;;;5.02
14666;BMP280;7420;53.574;10.040;2023-02-01T08:56:42;100576.97;;;5.03
14666;BMP280;7420;53.574;10.040;2023-02-01T08:59:08;100573.16;;;5.06
14666;BMP280;7420;53.574;10.040;2023-02-01T09:01:33;100578.91;;;5.09
14666;BMP280;7420;53.574;10.040;2023-02-01T09:03:58;100575.56;;;5.15
14666;BMP280;7420;53.574;10.040;2023-02-01T09:06:24;100578.78;;;5.25
14666;BMP280;7420;53.574;10.040;2023-02-01T09:08:49;100589.88;;;5.35
14666;BMP280;7420;53.574;10.040;2023-02-01T09:11:17;100603.41;;;5.32
14666;BMP280;7420;53.574;10.040;2023-02-01T09:13:45;100579.03;;;5.30
14666;BMP280;7420;53.574;10.040;2023-02-01T09:16:11;100573.41;;;5.33
14666;BMP280;7420;53.574;10.040;2023-02-01T09:18:36;100583.25;;;5.39
14666;BMP280;7420;53.574;10.040;2023-02-01T09:21:06;100589.81;;;5.43
14666;BMP280;7420;53.574;10.040;2023-02-01T09:23:33;100563.00;;;5.54
14666;BMP280;7420;53.574;10.040;2023-02-01T09:25:59;100570.44;;;5.51
14666;BMP280;7420;53.574;10.040;2023-02-01T09:28:25;100579.47;;;5.56
14666;BMP280;7420;53.574;10.040;2023-02-01T09:30:55;100575.13;;;5.63
14666;BMP280;7420;53.574;10.040;2023-02-01T09:33:21;100572.13;;;5.66
14666;BMP280;7420;53.574;10.040;2023-02-01T09:35:49;100578.03;;;5.68
14666;BMP280;7420;53.574;10.040;2023-02-01T09:38:14;100596.75;;;5.73
14666;BMP280;7420;53.574;10.040;2023-02-01T09:40:42;100600.53;;;5.78
14666;BMP280;7420;53.574;10.040;2023-02-01T09:48:36;100571.66;;;5.77
14666;BMP280;7420;53.574;10.040;2023-02-01T09:51:06;100609.09;;;5.80
14666;BMP280;7420;53.574;10.040;2023-02-01T09:53:40;100586.09;;;5.89
14666;BMP280;7420;53.574;10.040;2023-02-01T09:56:14;100593.72;;;5.84
14666;BMP280;7420;53.574;10.040;2023-02-01T09:58:47;100604.19;;;5.92
14666;BMP280;7420;53.574;10.040;2023-02-01T10:01:20;100577.72;;;6.00
14666;BMP280;7420;53.574;10.040;2023-02-01T10:03:47;100574.09;;;6.01
14666;BMP280;7420;53.574;10.040;2023-02-01T10:12:30;100582.44;;;6.19
14666;BMP280;7420;53.574;10.040;2023-02-01T10:23:01;100617.94;;;6.16
14666;BMP280;7420;53.574;10.040;2023-02-01T10:25:36;100588.06;;;6.16
14666;BMP280;7420;53.574;10.040;2023-02-01T10:28:03;100577.06;;;6.12
14666;BMP280;7420;53.574;10.040;2023-02-01T10:30:40;100557.88;;;6.04
14666;BMP280;7420;53.574;10.040;2023-02-01T10:33:18;100584.44;;;6.02
14666;BMP280;7420;53.574;10.040;2023-02-01T10:35:46;100580.72;;;5.97
14666;BMP280;7420;53.574;10.040;2023-02-01T10:38:29;100553.56;;;5.74
14666;BMP280;7420;53.574;10.040;2023-02-01T10:40:59;100560.59;;;5.67
14666;BMP280;7420;53.574;10.040;2023-02-01T10:43:25;100565.94;;;5.59
14666;BMP280;7420;53.574;10.040;2023-02-01T10:45:51;100544.06;;;5.51
14666;BMP280;7420;53.574;10.040;2023-02-01T10:48:16;100560.38;;;5.54
14666;BMP280;7420;53.574;10.040;2023-02-01T10:56:09;100532.72;;;5.50
14666;BMP280;7420;53.574;10.040;2023-02-01T11:01:31;100515.06;;;5.36
14666;BMP280;7420;53.574;10.040;2023-02-01T11:04:00;100507.63;;;5.40
14666;BMP280;7420;53.574;10.040;2023-02-01T11:06:32;100503.72;;;5.36
14666;BMP280;7420;53.574;10.040;2023-02-01T11:09:14;100466.75;;;5.29
14666;BMP280;7420;53.574;10.040;2023-02-01T11:16:48;100482.00;;;5.48
14666;BMP280;7420;53.574;10.040;2023-02-01T11:19:16;100467.09;;;5.55
14666;BMP280;7420;53.574;10.040;2023-02-01T11:21:42;100472.28;;;5.63
14666;BMP280;7420;53.574;10.040;2023-02-01T11:24:23;100466.38;;;5.61
14666;BMP280;7420;53.574;10.040;2023-02-01T11:26:50;100477.19;;;5.66
14666;BMP280;7420;53.574;10.040;2023-02-01T11:29:19;100470.94;;;5.67
14666;BMP280;7420;53.574;10.040;2023-02-01T11:31:47;100468.16;;;5.75
14666;BMP280;7420;53.574;10.040;2023-02-01T11:34:21;100458.91;;;5.79
14666;BMP280;7420;53.574;10.040;2023-02-01T11:36:48;100456.47;;;5.77
14666;BMP280;7420;53.574;10.040;2023-02-01T11:39:26;100474.06;;;5.77
14666;BMP280;7420;53.574;10.040;2023-02-01T11:42:05;100426.91;;;5.82
14666;BMP280;7420;53.574;10.040;2023-02-01T11:44:35;100451.91;;;5.86
14666;BMP280;7420;53.574;10.040;2023-02-01T11:49:46;100470.09;;;5.81
14666;BMP280;7420;53.574;10.040;2023-02-01T12:06:39;100424.91;;;5.55
14666;BMP280;7420;53.574;10.040;2023-02-01T12:12:31;100427.81;;;5.31
14666;BMP280;7420;53.574;10.040;2023-02-01T12:22:54;100400.38;;;5.11
14666;BMP280;7420;53.574;10.040;2023-02-01T12:25:52;100413.75;;;5.10
14666;BMP280;7420;53.574;10.040;2023-02-01T12:33:42;100511.16;;;4.95
14666;BMP280;7420;53.574;10.040;2023-02-01T12:36:21;100450.94;;;4.92
14666;BMP280;7420;53.574;10.040;2023-02-01T12:38:55;100437.22;;;4.82
14666;BMP280;7420;53.574;10.040;2023-02-01T12:44:24;100440.69;;;4.60
14666;BMP280;7420;53.574;10.040;2023-02-01T12:46:58;100438.88;;;4.61
14666;BMP280;7420;53.574;10.040;2023-02-01T12:49:53;100448.06;;;4.43
14666;BMP280;7420;53.574;10.040;2023-02-01T12:52:26;100450.88;;;4.41
14666;BMP280;7420;53.574;10.040;2023-02-01T12:54:58;100444.50;;;4.36
14666;BMP280;7420;53.574;10.040;2023-02-01T12:57:30;100457.38;;;4.31
14666;BMP280;7420;53.574;10.040;2023-02-01T13:00:05;100445.53;;;4.27
14666;BMP280;7420;53.574;10.040;2023-02-01T13:02:44;100444.25;;;4.23
14666;BMP280;7420;53.574;10.040;2023-02-01T13:05:24;100449.50;;;4.23
14666;BMP280;7420;53.574;10.040;2023-02-01T13:07:58;100415.97;;;4.25
14666;BMP280;7420;53.574;10.040;2023-02-01T13:10:35;100426.81;;;4.22
14666;BMP280;7420;53.574;10.040;2023-02-01T13:13:22;100428.13;;;4.26
14666;BMP280;7420;53.574;10.040;2023-02-01T13:18:38;100424.19;;;4.22
14666;BMP280;7420;53.574;10.040;2023-02-01T13:21:12;100421.50;;;4.52
14666;BMP280;7420;53.574;10.040;2023-02-01T13:23:40;100441.66;;;10.66
14666;BMP280;7420;53.574;10.040;2023-02-01T13:26:07;100449.88;;;13.32
14666;BMP280;7420;53.574;10.040;2023-02-01T13:28:52;100459.22;;;16.16
14666;BMP280;7420;53.574;10.040;2023-02-01T13:37:20;100467.47;;;16.84
14666;BMP280;7420;53.574;10.040;2023-02-01T13:40:30;100448.31;;;12.49
14666;BMP280;7420;53.574;10.040;2023-02-01T13:43:14;100427.03;;;8.14
14666;BMP280;7420;53.574;10.040;2023-02-01T13:45:52;100424.59;;;6.50
14666;BMP280;7420;53.574;10.040;2023-02-01T13:48:41;100423.59;;;6.30
14666;BMP280;7420;53.574;10.040;2023-02-01T13:51:12;100407.50;;;6.25
14666;BMP280;7420;53.574;10.040;2023-02-01T13:53:45;100417.00;;;5.69
14666;BMP280;7420;53.574;10.040;2023-02-01T13:56:18;100406.28;;;5.28
14666;BMP280;7420;53.574;10.040;2023-02-01T13:58:46;100400.31;;;5.19
14666;BMP280;7420;53.574;10.040;2023-02-01T14:03:54;100391.47;;;5.12
14666;BMP280;7420;53.574;10.040;2023-02-01T14:09:16;100414.16;;;4.84
14666;BMP280;7420;53.574;10.040;2023-02-01T14:11:50;100438.00;;;5.20
14666;BMP280;7420;53.574;10.040;2023-02-01T14:19:22;100421.25;;;4.61
14666;BMP280;7420;53.574;10.040;2023-02-01T14:21:52;100440.34;;;4.63
14666;BMP280;7420;53.574;10.040;2023-02-01T14:24:30;100418.03;;;4.51
14666;BMP280;7420;53.574;10.040;2023-02-01T14:27:01;100422.34;;;4.30
14666;BMP280;7420;53.574;10.040;2023-02-01T14:29:32;100441.34;;;4.40
14666;BMP280;7420;53.574;10.040;2023-02-01T14:32:16;100439.28;;;4.28
14666;BMP280;7420;53.574;10.040;2023-02-01T14:44:55;100491.53;;;4.08
14666;BMP280;7420;53.574;10.040;2023-02-01T14:49:52;100492.56;;;4.30
14666;BMP280;7420;53.574;10.040;2023-02-01T14:52:20;100517.97;;;4.45
14666;BMP280;7420;53.574;10.040;2023-02-01T14:54:53;100491.94;;;4.50
14666;BMP280;7420;53.574;10.040;2023-02-01T14:57:20;100490.13;;;4.51
14666;BMP280;7420;53.574;10.040;2023-02-01T14:59:53;100500.38;;;4.46
14666;BMP280;7420;53.574;10.040;2023-02-01T15:02:26;100496.91;;;4.45
14666;BMP280;7420;53.574;10.040;2023-02-01T15:04:56;100509.91;;;4.47
14666;BMP280;7420;53.574;10.040;2023-02-01T15:07:24;100489.19;;;4.44
14666;BMP280;7420;53.574;10.040;2023-02-01T15:09:52;100494.09;;;4.47
14666;BMP280;7420;53.574;10.040;2023-02-01T15:12:23;100500.28;;;4.53
14666;BMP280;7420;53.574;10.040;2023-02-01T15:17:36;100504.28;;;4.50
14666;BMP280;7420;53.574;10.040;2023-02-01T15:20:25;100501.72;;;4.42
14666;BMP280;7420;53.574;10.040;2023-02-01T15:23:06;100503.50;;;4.41
14666;BMP280;7420;53.574;10.040;2023-02-01T15:25:38;100523.09;;;4.39
14666;BMP280;7420;53.574;10.040;2023-02-01T15:28:04;100501.41;;;4.37
14666;BMP280;7420;53.574;10.040;2023-02-01T15:30:34;100491.22;;;4.34
14666;BMP280;7420;53.574;10.040;2023-02-01T15:35:39;100488.94;;;4.31
14666;BMP280;7420;53.574;10.040;2023-02-01T15:38:30;100502.97;;;4.23
14666;BMP280;7420;53.574;10.040;2023-02-01T15:44:04;100533.88;;;4.21
14666;BMP280;7420;53.574;10.040;2023-02-01T15:46:31;100525.00;;;4.22
14666;BMP280;7420;53.574;10.040;2023-02-01T15:48:57;100535.34;;;4.24
14666;BMP280;7420;53.574;10.040;2023-02-01T15:51:28;100532.38;;;4.27
14666;BMP280;7420;53.574;10.040;2023-02-01T15:56:27;100533.38;;;4.26
14666;BMP280;7420;53.574;10.040;2023-02-01T15:58:56;100530.44;;;4.21
14666;BMP280;7420;53.574;10.040;2023-02-01T16:01:22;100522.69;;;4.27
14666;BMP280;7420;53.574;10.040;2023-02-01T16:03:48;100542.41;;;4.31
14666;BMP280;7420;53.574;10.040;2023-02-01T16:08:54;100520.16;;;4.34
14666;BMP280;7420;53.574;10.040;2023-02-01T16:11:31;100522.16;;;4.32
14666;BMP280;7420;53.574;10.040;2023-02-01T16:13:58;100527.22;;;4.33
14666;BMP280;7420;53.574;10.040;2023-02-01T16:16:25;100532.34;;;4.35
14666;BMP280;7420;53.574;10.040;2023-02-01T16:18:51;100522.63;;;4.35
14666;BMP280;7420;53.574;10.040;2023-02-01T16:21:16;100525.09;;;4.37
14666;BMP280;7420;53.574;10.040;2023-02-01T16:23:42;100522.13;;;4.40
14666;BMP280;7420;53.574;10.040;2023-02-01T16:26:07;100536.91;;;4.41
14666;BMP280;7420;53.574;10.040;2023-02-01T16:28:33;100537.06;;;4.39
14666;BMP280;7420;53.574;10.040;2023-02-01T16:30:59;100542.16;;;4.41
14666;BMP280;7420;53.574;10.040;2023-02-01T16:33:25;100542.16;;;4.41
14666;BMP280;7420;53.574;10.040;2023-02-01T16:35:51;100544.81;;;4.41
14666;BMP280;7420;53.574;10.040;2023-02-01T16:38:19;100558.06;;;4.47
14666;BMP280;7420;53.574;10.040;2023-02-01T16:40:49;100549.66;;;4.51